Nearby METAR Reports

 

EGMC - Southend-On-Sea, United Kingdom
Distance from station: NE 10km
Updated: 22/06/2021 04:50
Mostly cloudy
Mostly cloudy
 Wind from N
Wind: N 13 mph , 20 km/h
Temperature: 11°C
Dew Point: 9°C
Humidity: 88%
Barometer: 1017 hPa
Clouds: Mostly cloudy
Visibility: 6 miles , 10 km
Cloud details: Mostly cloudy 1036 m
2021/06/22 03:50 EGMC 220350Z 36011KT 9999 BKN034 11/09 Q1017
EGLC - London City Airp, United Kingdom
Distance from station: W 37km
Updated: 22/06/2021 04:50
Clear
Clear
 Wind from varies
Wind: varies 8 mph , 13 km/h
Temperature: 12°C
Dew Point: 8°C
Humidity: 77%
Barometer: 1018 hPa
Clouds: Clear
Visibility: 6 miles , 10 km
2021/06/22 03:50 EGLC 220350Z AUTO VRB07KT 9999 NCD 12/08 Q1018
EGKB - Biggin Hill, United Kingdom
Distance from station: WSW 45km
Updated: 21/06/2021 22:50
NOT Current
Mostly cloudy
Mostly cloudy
 Wind from NNE
Wind: NNE 15 mph , 24 km/h
Temperature: 11°C
Dew Point: 10°C
Humidity: 94%
Barometer: 1016 hPa
Clouds: Mostly cloudy
Visibility: 6 miles , 10 km
Cloud details: Mostly cloudy 366 m
2021/06/21 21:50 EGKB 212150Z 03013KT 9999 BKN012 11/10 Q1016
 
EGSS - Stansted Airport, United Kingdom
Distance from station: NNW 48km
Updated: 22/06/2021 04:50
Clear
Clear
 Wind from N
Wind: N 10 mph , 17 km/h
Temperature: 10°C
Wind Chill: 8°C
Dew Point: 9°C
Humidity: 94%
Barometer: 1018 hPa
Clouds: Clear
Visibility: 6 miles , 10 km
2021/06/22 03:50 EGSS 220350Z AUTO 01009KT 9999 NCD 10/09 Q1018
EGKK - London/Gatwick A, United Kingdom
Distance from station: SW 67km
Updated: 22/06/2021 04:50
Mostly cloudy
Mostly cloudy
 Wind from N
Wind: N 15 mph , 24 km/h
Temperature: 12°C
Dew Point: 9°C
Humidity: 82%
Barometer: 1017 hPa
Clouds: Mostly cloudy
Visibility: 6 miles , 10 km
Cloud details: Few Clouds 488 m
Mostly cloudy 914 m
2021/06/22 03:50 EGKK 220350Z 01013KT 9999 FEW016 BKN030 12/09 Q1017
EGMD - Lydd Airport, United Kingdom
Distance from station: SSE 67km
Updated: 22/06/2021 04:50
Light rain, Few clouds
Light rain, Few clouds
 Wind from NNE
Wind: NNE 21 mph , 33 km/h
Temperature: 13°C
Dew Point: 12°C
Humidity: 94%
Barometer: 1016 hPa
Summary: Light rain
Clouds: Few Clouds
Visibility: 6 miles , 10 km
Cloud details: Few Clouds 305 m
2021/06/22 03:50 EGMD 220350Z AUTO 03018KT 9999 -RA FEW010/// 13/12 Q1016
 
EGWU - Northolt Raf, United Kingdom
Distance from station: W 69km
Updated: 22/06/2021 03:50
Overcast
Overcast
 Wind from NNE
Wind: NNE 12 mph , 19 km/h
Temperature: 11°C
Dew Point: 8°C
Humidity: 82%
Barometer: 1018 hPa
Clouds: Overcast
Visibility: 6 miles , 10 km
Cloud details: Overcast 2438 m
2021/06/22 02:50 EGWU 220250Z AUTO 03010KT 9999 // OVC080/// 11/08 Q1018
EGLL - London/Heathrow, United Kingdom
Distance from station: W 72km
Updated: 22/06/2021 04:50
Clear
Clear
 Wind from N
Wind: N 7 mph , 11 km/h
Temperature: 11°C
Dew Point: 8°C
Humidity: 82%
Barometer: 1018 hPa
Clouds: Clear
Visibility: 6 miles , 10 km
2021/06/22 03:50 EGLL 220350Z AUTO 01006KT 340V050 9999 NCD 11/08 Q1018
EGUW - Wattisham Raf, United Kingdom
Distance from station: NNE 72km
Updated: 22/06/2021 03:50
Overcast
Overcast
 Wind from NNE
Wind: NNE 9 mph , 15 km/h
Temperature: 10°C
Wind Chill: 8°C
Dew Point: 9°C
Humidity: 94%
Barometer: 1018 hPa
Clouds: Overcast
Visibility: 6 miles , 10 km
Cloud details: Overcast 2438 m
2021/06/22 02:50 EGUW 220250Z AUTO 02008KT 9999 OVC080/// 10/09 Q1018
 
EGGW - Luton Airport, United Kingdom
Distance from station: WNW 76km
Updated: 22/06/2021 04:50
Clear
Clear
 Wind from N
Wind: N 12 mph , 19 km/h
Temperature: 10°C
Wind Chill: 7°C
Dew Point: 9°C
Humidity: 94%
Barometer: 1019 hPa
Clouds: Clear
Visibility: 6 miles , 10 km
2021/06/22 03:50 EGGW 220350Z AUTO 01010KT 9999 NCD 10/09 Q1019
EGSC - Cambridge, United Kingdom
Distance from station: NNW 81km
Updated: 21/06/2021 17:50
NOT Current
Light rain, Mostly cloudy
Light rain, Mostly cloudy
 Wind from NE
Wind: NE 12 mph , 19 km/h
Temperature: 15°C
Dew Point: 9°C
Humidity: 68%
Barometer: 1015 hPa
Summary: Light rain
Clouds: Mostly cloudy
Visibility: 6 miles , 10 km
Cloud details: Partly cloudy 853 m
Mostly cloudy 1067 m
2021/06/21 16:50 EGSC 211650Z 04010KT 9999 -RA SCT028 BKN035 15/09 Q1015